Time;durP1;ratioP1;P1;durP2;ratioP2;P2;SDS_P1;SDS_P2;PMS_P1;PMS_P2;Temp;Humidity;BMP_temperature;BMP_pressure;BME280_temperature;BME280_humidity;BME280_pressure;Samples;Min_cycle;Max_cycle;Signal;HPM_P1;HPM_P2
2021/06/21 00:01:08;;;;;;;37.25;9.73;;;24.00;62.90;;;;;;6268228;22;20343;-84
2021/06/21 00:03:40;;;;;;;32.05;9.27;;;24.00;62.50;;;;;;6243068;23;20012;-83
2021/06/21 00:06:15;;;;;;;37.05;9.93;;;23.90;62.60;;;;;;6245514;22;20028;-83
2021/06/21 00:08:40;;;;;;;40.47;9.35;;;23.90;62.90;;;;;;6243710;23;20012;-84
2021/06/21 00:11:06;;;;;;;32.40;9.40;;;23.70;62.70;;;;;;6244747;23;20115;-84
2021/06/21 00:13:32;;;;;;;31.20;7.85;;;23.70;62.90;;;;;;6242734;22;20020;-84
2021/06/21 00:15:58;;;;;;;40.88;9.68;;;23.70;62.80;;;;;;6242897;23;20146;-84
2021/06/21 00:18:24;;;;;;;28.67;8.77;;;23.70;62.60;;;;;;6243568;23;20004;-83
2021/06/21 00:20:52;;;;;;;26.30;9.40;;;23.80;63.00;;;;;;6242908;23;20003;-83
2021/06/21 00:23:19;;;;;;;35.65;9.75;;;23.80;63.40;;;;;;6243511;23;19996;-83
2021/06/21 00:25:50;;;;;;;30.67;8.90;;;23.80;63.10;;;;;;6242857;23;20070;-83
2021/06/21 00:28:16;;;;;;;36.78;9.88;;;23.70;62.70;;;;;;6245062;23;20419;-83
2021/06/21 00:30:46;;;;;;;41.03;9.68;;;23.70;62.50;;;;;;6244992;23;20007;-83
2021/06/21 00:33:13;;;;;;;27.63;9.23;;;23.70;62.40;;;;;;6242310;23;20004;-83
2021/06/21 00:35:41;;;;;;;35.88;10.35;;;23.60;62.60;;;;;;6242887;23;20015;-83
2021/06/21 00:38:07;;;;;;;31.77;9.68;;;23.60;63.20;;;;;;6244801;22;20067;-84
2021/06/21 00:40:36;;;;;;;32.95;10.27;;;23.60;63.50;;;;;;6243185;23;20078;-84
2021/06/21 00:43:03;;;;;;;28.13;10.02;;;23.60;63.60;;;;;;6243159;23;20036;-84
2021/06/21 00:45:29;;;;;;;38.38;10.45;;;23.60;63.80;;;;;;6243402;23;20011;-84
2021/06/21 00:47:56;;;;;;;30.63;11.32;;;23.60;63.80;;;;;;6244048;23;20039;-84
2021/06/21 00:50:24;;;;;;;32.28;8.77;;;23.60;63.90;;;;;;6242786;23;20415;-84
2021/06/21 00:52:53;;;;;;;44.15;8.75;;;23.40;63.50;;;;;;6243064;23;20004;-84
2021/06/21 00:55:19;;;;;;;34.70;8.00;;;23.40;62.90;;;;;;6242508;23;20107;-84
2021/06/21 00:57:46;;;;;;;33.55;10.32;;;23.50;62.60;;;;;;6243238;23;20086;-84
2021/06/21 01:00:17;;;;;;;32.05;7.95;;;23.40;62.50;;;;;;6241202;23;20024;-84
2021/06/21 01:02:44;;;;;;;37.13;9.13;;;23.30;62.00;;;;;;6241599;23;20494;-84
2021/06/21 01:05:15;;;;;;;27.27;7.82;;;23.30;62.10;;;;;;6243032;23;20000;-84
2021/06/21 01:07:41;;;;;;;29.63;8.68;;;23.30;61.80;;;;;;6244086;23;20066;-84
2021/06/21 01:10:08;;;;;;;30.52;9.43;;;23.30;61.80;;;;;;6242202;23;20019;-84
2021/06/21 01:12:52;;;;;;;40.00;9.15;;;23.40;61.90;;;;;;6249638;23;20035;-84
2021/06/21 01:15:26;;;;;;;32.58;8.15;;;23.40;61.90;;;;;;6242792;23;20386;-84
2021/06/21 01:17:52;;;;;;;26.90;9.35;;;23.40;61.90;;;;;;6243001;23;20024;-84
2021/06/21 01:20:48;;;;;;;34.35;8.18;;;23.30;62.10;;;;;;6242591;23;20023;-83
2021/06/21 01:23:32;;;;;;;45.05;9.07;;;23.20;61.40;;;;;;6244729;22;19996;-84
2021/06/21 01:26:17;;;;;;;29.75;8.38;;;23.10;61.30;;;;;;6241334;23;20018;-84
2021/06/21 01:28:47;;;;;;;41.47;8.13;;;23.10;61.10;;;;;;6242500;23;20035;-84
2021/06/21 01:31:24;;;;;;;30.95;8.10;;;23.00;60.90;;;;;;6243103;22;20066;-84
2021/06/21 01:33:51;;;;;;;33.90;8.93;;;23.00;61.60;;;;;;6242550;23;20347;-84
2021/06/21 01:36:19;;;;;;;32.15;8.73;;;22.90;62.00;;;;;;6243159;23;20012;-84
2021/06/21 01:38:51;;;;;;;30.60;8.82;;;22.90;62.10;;;;;;6242919;23;20342;-83
2021/06/21 01:41:25;;;;;;;34.60;7.47;;;22.90;62.20;;;;;;6242493;23;20011;-83
2021/06/21 01:43:53;;;;;;;36.85;7.78;;;22.90;61.80;;;;;;6243163;23;20007;-83
2021/06/21 01:46:28;;;;;;;38.78;6.88;;;22.90;61.50;;;;;;6242096;23;20008;-83
2021/06/21 01:48:58;;;;;;;39.15;9.57;;;22.90;61.00;;;;;;6242845;23;20081;-83
2021/06/21 01:51:28;;;;;;;35.38;7.55;;;22.90;60.60;;;;;;6242205;23;20012;-84
2021/06/21 01:53:57;;;;;;;30.80;7.90;;;22.90;60.60;;;;;;6268408;22;20008;-84
2021/06/21 01:56:30;;;;;;;36.90;9.32;;;22.80;60.50;;;;;;6242799;23;20005;-84
2021/06/21 01:58:57;;;;;;;35.00;9.07;;;22.80;61.00;;;;;;6242957;23;20338;-84
2021/06/21 02:01:23;;;;;;;38.35;11.10;;;22.80;61.70;;;;;;6241496;23;20101;-84
2021/06/21 02:03:53;;;;;;;30.10;10.80;;;22.80;62.60;;;;;;6241425;23;20004;-84
2021/06/21 02:06:20;;;;;;;44.65;11.88;;;22.90;63.20;;;;;;6242836;23;20015;-83
2021/06/21 02:08:50;;;;;;;42.58;11.05;;;22.80;63.60;;;;;;6242177;23;20008;-83
2021/06/21 02:11:18;;;;;;;29.52;10.40;;;22.70;64.60;;;;;;6244282;22;20338;-84
2021/06/21 02:13:45;;;;;;;41.60;11.40;;;22.60;65.10;;;;;;6242225;23;20004;-84
2021/06/21 02:16:13;;;;;;;33.60;11.77;;;22.70;65.40;;;;;;6241657;23;20000;-83
2021/06/21 02:18:40;;;;;;;38.45;11.32;;;22.70;65.50;;;;;;6242573;23;20000;-84
2021/06/21 02:21:06;;;;;;;37.60;9.05;;;22.70;65.30;;;;;;6242514;23;20496;-84
2021/06/21 02:23:32;;;;;;;35.95;8.90;;;22.60;64.50;;;;;;6244321;22;20078;-84
2021/06/21 02:25:59;;;;;;;45.97;9.50;;;22.40;64.80;;;;;;6242626;23;20817;-83
2021/06/21 02:28:27;;;;;;;40.97;8.45;;;22.30;63.90;;;;;;6242149;23;20004;-84
2021/06/21 02:30:55;;;;;;;31.70;8.50;;;22.30;63.50;;;;;;6242624;23;20035;-84
2021/06/21 02:33:21;;;;;;;40.72;8.98;;;22.40;63.30;;;;;;6242607;23;20695;-86
2021/06/21 02:35:48;;;;;;;40.03;8.50;;;22.40;62.60;;;;;;6242955;23;20004;-85
2021/06/21 02:38:14;;;;;;;41.72;9.00;;;22.40;62.50;;;;;;6242260;23;20062;-85
2021/06/21 02:40:40;;;;;;;42.42;9.30;;;22.30;62.60;;;;;;6242272;23;19997;-85
2021/06/21 02:43:06;;;;;;;34.00;8.68;;;22.30;62.80;;;;;;6243210;23;20082;-85
2021/06/21 02:45:33;;;;;;;45.67;9.13;;;22.30;63.00;;;;;;6243315;23;20004;-85
2021/06/21 02:48:01;;;;;;;38.63;8.27;;;22.20;62.80;;;;;;6243355;23;20442;-84
2021/06/21 02:50:27;;;;;;;45.45;9.85;;;22.20;62.80;;;;;;6242320;23;20346;-83
2021/06/21 02:53:20;;;;;;;36.35;9.38;;;22.10;62.80;;;;;;6246585;23;20004;-84
2021/06/21 02:55:57;;;;;;;;;;;22.10;63.00;;;;;;6242973;22;20007;-83
2021/06/21 02:58:31;;;;;;;36.25;9.25;;;22.00;63.00;;;;;;6243656;23;19906;-83
2021/06/21 03:01:01;;;;;;;40.40;8.00;;;22.00;62.90;;;;;;6240617;23;20635;-83
2021/06/21 03:04:00;;;;;;;38.80;9.57;;;22.00;62.90;;;;;;6242417;23;20004;-84
2021/06/21 03:06:27;;;;;;;42.60;9.63;;;22.00;62.90;;;;;;6210615;23;20004;-84
2021/06/21 03:08:54;;;;;;;39.30;9.00;;;21.90;62.90;;;;;;6241027;23;20095;-84
2021/06/21 03:11:21;;;;;;;38.45;8.57;;;21.90;62.90;;;;;;6241178;23;20035;-84
2021/06/21 03:13:51;;;;;;;42.08;8.20;;;22.00;62.90;;;;;;6242213;23;20004;-84
2021/06/21 03:16:18;;;;;;;39.10;8.23;;;22.00;62.40;;;;;;6241406;23;20332;-83
2021/06/21 03:18:47;;;;;;;34.53;8.35;;;22.00;62.20;;;;;;6244136;23;20423;-84
2021/06/21 03:21:20;;;;;;;34.05;9.15;;;22.00;62.40;;;;;;6240922;23;20027;-83
2021/06/21 03:23:53;;;;;;;45.22;9.77;;;22.00;63.00;;;;;;6242332;23;20001;-83
2021/06/21 03:26:30;;;;;;;40.08;9.10;;;22.00;62.90;;;;;;6242650;23;20031;-83
2021/06/21 03:28:57;;;;;;;42.75;8.93;;;21.90;63.00;;;;;;6244078;23;20000;-83
2021/06/21 03:31:24;;;;;;;41.33;10.10;;;21.80;63.00;;;;;;6243159;23;20091;-83
2021/06/21 03:33:50;;;;;;;36.40;8.38;;;21.80;63.20;;;;;;6244461;23;20015;-83
2021/06/21 03:36:17;;;;;;;39.78;8.23;;;21.80;63.60;;;;;;6243841;23;20000;-83
2021/06/21 03:38:43;;;;;;;38.97;8.20;;;21.90;63.80;;;;;;6245501;22;20389;-84
2021/06/21 03:41:12;;;;;;;36.35;9.07;;;21.80;63.40;;;;;;6245240;22;19996;-83
2021/06/21 03:43:37;;;;;;;35.00;8.43;;;21.80;63.10;;;;;;6243759;23;20076;-83
2021/06/21 03:46:05;;;;;;;44.75;9.30;;;21.70;62.90;;;;;;6243333;23;20008;-84
2021/06/21 03:48:32;;;;;;;48.42;9.07;;;21.70;62.80;;;;;;6245228;22;20005;-83
2021/06/21 03:50:59;;;;;;;47.55;10.00;;;21.80;63.00;;;;;;6269216;22;20005;-84
2021/06/21 03:53:27;;;;;;;30.58;8.88;;;21.80;63.30;;;;;;6245039;22;20080;-84
2021/06/21 03:55:54;;;;;;;46.95;11.70;;;21.80;63.40;;;;;;6244389;23;20031;-84
2021/06/21 03:58:23;;;;;;;37.20;10.93;;;21.90;64.00;;;;;;6243751;23;20000;-83
2021/06/21 04:00:48;;;;;;;36.80;11.18;;;22.00;64.60;;;;;;6243455;23;20020;-83
2021/06/21 04:03:14;;;;;;;32.35;12.55;;;22.10;65.00;;;;;;6243813;23;20091;-84
2021/06/21 04:05:43;;;;;;;42.92;11.93;;;22.20;65.50;;;;;;6243738;23;20014;-84
2021/06/21 04:08:10;;;;;;;29.63;10.48;;;22.20;65.80;;;;;;6243465;23;20453;-84
2021/06/21 04:10:39;;;;;;;36.35;10.43;;;22.20;66.00;;;;;;6243466;23;20004;-83
2021/06/21 04:13:05;;;;;;;36.88;9.32;;;22.20;66.10;;;;;;6242978;23;20406;-83
2021/06/21 04:15:31;;;;;;;39.75;9.40;;;22.10;65.40;;;;;;6268347;22;20004;-83
2021/06/21 04:17:58;;;;;;;41.50;9.80;;;22.10;65.10;;;;;;6244890;22;20003;-85
2021/06/21 04:20:25;;;;;;;33.53;9.40;;;22.10;64.80;;;;;;6243094;23;20004;-84
2021/06/21 04:22:51;;;;;;;42.90;9.70;;;22.10;64.40;;;;;;6243942;23;20004;-84
2021/06/21 04:25:18;;;;;;;37.85;9.30;;;22.30;64.20;;;;;;6244222;23;19997;-84
2021/06/21 04:27:44;;;;;;;33.30;10.20;;;22.30;64.00;;;;;;6243825;23;20008;-85
2021/06/21 04:30:12;;;;;;;30.88;10.10;;;22.40;64.00;;;;;;6243178;23;20426;-85
2021/06/21 04:32:39;;;;;;;38.63;10.70;;;22.40;64.10;;;;;;6243746;23;20128;-85
2021/06/21 04:35:08;;;;;;;41.45;11.80;;;22.40;64.30;;;;;;6243936;22;20046;-83
2021/06/21 04:37:33;;;;;;;36.45;10.35;;;22.40;64.70;;;;;;6243895;23;20000;-84
2021/06/21 04:40:01;;;;;;;32.03;10.18;;;22.30;65.00;;;;;;6242830;23;20034;-84
2021/06/21 04:42:26;;;;;;;32.28;9.55;;;22.40;65.10;;;;;;6243105;23;20004;-84
2021/06/21 04:44:52;;;;;;;43.08;10.77;;;22.50;64.80;;;;;;6243511;23;20004;-84
2021/06/21 04:47:19;;;;;;;37.67;10.95;;;22.50;64.70;;;;;;6242870;23;20004;-84
2021/06/21 04:49:48;;;;;;;37.00;10.07;;;22.60;64.70;;;;;;6242641;23;20519;-87
2021/06/21 04:52:15;;;;;;;35.20;10.30;;;22.70;64.70;;;;;;6243077;23;20047;-84
2021/06/21 04:54:41;;;;;;;49.38;11.70;;;22.70;64.40;;;;;;6242841;23;20012;-84
2021/06/21 04:57:07;;;;;;;44.05;11.68;;;22.80;64.60;;;;;;6242774;23;20028;-84
2021/06/21 04:59:33;;;;;;;42.58;10.95;;;22.80;64.70;;;;;;6242511;23;20001;-84
2021/06/21 05:01:58;;;;;;;36.10;10.25;;;22.80;64.70;;;;;;6242663;23;20142;-83
2021/06/21 05:04:24;;;;;;;40.83;10.50;;;22.80;64.50;;;;;;6243031;23;20039;-83
2021/06/21 05:06:50;;;;;;;34.15;10.75;;;22.90;64.60;;;;;;6242740;23;20008;-83
2021/06/21 05:09:16;;;;;;;33.70;11.15;;;23.00;64.60;;;;;;6241997;23;20016;-84
2021/06/21 05:11:41;;;;;;;34.28;10.45;;;23.00;64.60;;;;;;6241874;23;20453;-86
2021/06/21 05:14:07;;;;;;;44.10;10.63;;;23.00;64.60;;;;;;6242768;23;20015;-85
2021/06/21 05:16:33;;;;;;;31.52;8.25;;;23.10;64.90;;;;;;6242203;23;20410;-85
2021/06/21 05:18:59;;;;;;;32.63;9.68;;;23.10;64.90;;;;;;6242969;23;20007;-85
2021/06/21 05:21:24;;;;;;;36.50;10.52;;;23.20;64.80;;;;;;6242545;23;20328;-85
2021/06/21 05:23:50;;;;;;;30.77;9.57;;;23.30;64.90;;;;;;6243095;23;20000;-85
2021/06/21 05:26:16;;;;;;;37.03;10.77;;;23.30;64.90;;;;;;6242629;23;20388;-86
2021/06/21 05:28:41;;;;;;;39.83;10.02;;;23.30;64.70;;;;;;6242803;23;20373;-85
2021/06/21 05:31:07;;;;;;;31.15;9.55;;;23.40;64.60;;;;;;6243748;22;20435;-85
2021/06/21 05:33:44;;;;;;;27.08;9.18;;;23.50;64.50;;;;;;6243008;23;20004;-85
2021/06/21 05:36:10;;;;;;;31.70;10.43;;;23.50;64.50;;;;;;6242935;23;20036;-85
2021/06/21 05:38:37;;;;;;;32.00;8.20;;;23.50;64.50;;;;;;6242400;23;20004;-85
2021/06/21 05:41:03;;;;;;;34.72;9.52;;;23.60;64.60;;;;;;6242925;23;20052;-85
2021/06/21 05:43:28;;;;;;;25.98;9.02;;;23.50;64.50;;;;;;6242130;23;20004;-85
2021/06/21 05:45:54;;;;;;;32.83;8.52;;;23.50;64.60;;;;;;6217201;23;20019;-85
2021/06/21 05:48:20;;;;;;;25.70;8.38;;;23.60;64.30;;;;;;6217961;23;20019;-85
2021/06/21 05:50:47;;;;;;;27.83;8.80;;;23.60;64.30;;;;;;6243025;23;20386;-85
2021/06/21 05:53:12;;;;;;;32.85;9.15;;;23.60;64.30;;;;;;6244841;23;20022;-85
2021/06/21 05:55:38;;;;;;;24.08;9.05;;;23.60;64.30;;;;;;6243460;23;20082;-85
2021/06/21 05:58:04;;;;;;;28.23;9.30;;;23.60;64.60;;;;;;6243334;23;20004;-84
2021/06/21 06:00:30;;;;;;;24.52;7.95;;;23.50;64.70;;;;;;6241847;23;20043;-85
2021/06/21 06:02:55;;;;;;;26.80;8.05;;;23.60;64.60;;;;;;6242930;23;20331;-85
2021/06/21 06:05:21;;;;;;;31.02;8.27;;;23.60;64.60;;;;;;6242555;23;20042;-85
2021/06/21 06:07:47;;;;;;;35.30;8.82;;;23.60;64.60;;;;;;6243937;22;20000;-85
2021/06/21 06:10:14;;;;;;;24.63;8.48;;;23.70;64.80;;;;;;6242616;23;20031;-85
2021/06/21 06:12:40;;;;;;;23.27;7.40;;;23.70;64.90;;;;;;6243166;23;20015;-85
2021/06/21 06:15:06;;;;;;;40.17;10.60;;;23.70;64.80;;;;;;6242100;23;20008;-85
2021/06/21 06:17:32;;;;;;;26.13;7.50;;;23.70;64.80;;;;;;6243991;22;20004;-85
2021/06/21 06:19:58;;;;;;;23.00;7.30;;;23.70;64.70;;;;;;6242108;23;20027;-85
2021/06/21 06:22:24;;;;;;;26.45;8.88;;;23.70;64.60;;;;;;6242267;23;20056;-85
2021/06/21 06:24:50;;;;;;;27.77;8.90;;;23.80;64.60;;;;;;6242456;23;20004;-85
2021/06/21 06:27:16;;;;;;;30.70;7.72;;;23.80;64.50;;;;;;6248242;23;20015;-85
2021/06/21 06:29:42;;;;;;;26.80;7.10;;;23.80;64.50;;;;;;6217504;23;20012;-85
2021/06/21 06:32:08;;;;;;;18.33;7.07;;;23.90;64.40;;;;;;6240681;23;20087;-85
2021/06/21 06:34:34;;;;;;;23.30;8.57;;;23.90;64.40;;;;;;6241236;23;20390;-85
2021/06/21 06:37:00;;;;;;;22.02;7.18;;;23.90;64.30;;;;;;6242376;23;20008;-88
2021/06/21 06:39:26;;;;;;;19.40;6.47;;;24.00;64.40;;;;;;6242829;23;20450;-87
2021/06/21 06:41:52;;;;;;;22.10;6.35;;;24.10;64.00;;;;;;6243141;23;20008;-87
2021/06/21 06:44:18;;;;;;;25.15;6.47;;;24.20;63.80;;;;;;6243583;23;20339;-87
2021/06/21 06:46:44;;;;;;;19.35;6.20;;;24.20;63.50;;;;;;6243586;23;20119;-87
2021/06/21 06:49:10;;;;;;;28.98;6.95;;;24.30;63.30;;;;;;6245306;22;20014;-87
2021/06/21 06:51:41;;;;;;;21.35;6.47;;;24.40;63.00;;;;;;6243588;23;20019;-88
2021/06/21 06:59:36;;;;;;;20.70;6.05;;;24.80;62.10;;;;;;6244829;23;20015;-87
2021/06/21 07:02:06;;;;;;;23.95;6.78;;;24.90;61.80;;;;;;6245017;23;20008;-87
2021/06/21 07:04:32;;;;;;;28.90;7.20;;;25.00;61.50;;;;;;6246595;22;20000;-87
2021/06/21 07:07:02;;;;;;;21.90;7.38;;;25.10;61.10;;;;;;6244714;23;20347;-87
2021/06/21 07:09:29;;;;;;;28.23;6.53;;;25.20;61.20;;;;;;6245328;23;20027;-87
2021/06/21 07:11:56;;;;;;;25.20;7.68;;;25.30;60.90;;;;;;6245856;23;20142;-87
2021/06/21 07:14:21;;;;;;;22.00;5.93;;;25.40;60.50;;;;;;6245636;23;20011;-88
2021/06/21 07:16:48;;;;;;;23.13;6.00;;;25.60;60.20;;;;;;6220039;23;20008;-87
2021/06/21 07:19:16;;;;;;;19.52;5.20;;;25.70;60.60;;;;;;6245704;23;20008;-87
2021/06/21 07:21:42;;;;;;;26.85;6.25;;;25.80;59.70;;;;;;6246686;22;20056;-87
2021/06/21 07:24:09;;;;;;;26.65;5.93;;;25.90;59.30;;;;;;6245120;23;20005;-87
2021/06/21 07:26:36;;;;;;;26.40;6.68;;;26.00;58.80;;;;;;6245247;23;20011;-87
2021/06/21 07:29:02;;;;;;;20.75;5.90;;;26.10;58.70;;;;;;6245256;23;20811;-87
2021/06/21 07:31:28;;;;;;;16.75;5.55;;;26.20;58.40;;;;;;6244684;23;20035;-87
2021/06/21 07:33:54;;;;;;;18.02;5.65;;;26.30;57.90;;;;;;6246037;23;20312;-87
2021/06/21 07:36:19;;;;;;;17.25;4.40;;;26.40;57.60;;;;;;6245454;23;20042;-87
2021/06/21 07:38:45;;;;;;;19.15;4.65;;;26.50;57.10;;;;;;6244495;23;20866;-87
2021/06/21 07:41:11;;;;;;;23.25;5.07;;;26.50;56.80;;;;;;6245549;23;20008;-87
2021/06/21 07:43:37;;;;;;;13.57;4.15;;;26.60;56.50;;;;;;6246477;22;19996;-87
2021/06/21 07:46:04;;;;;;;20.23;4.85;;;26.70;56.40;;;;;;6244752;23;20139;-87
2021/06/21 07:48:30;;;;;;;17.17;5.13;;;26.80;55.90;;;;;;6245725;23;20023;-87
2021/06/21 07:50:56;;;;;;;17.23;5.25;;;26.90;55.60;;;;;;6246551;22;20427;-87
2021/06/21 07:53:22;;;;;;;21.48;5.20;;;27.00;55.30;;;;;;6245469;23;20066;-87
2021/06/21 07:55:48;;;;;;;12.95;4.00;;;27.10;55.10;;;;;;6244194;23;20461;-87
2021/06/21 07:58:14;;;;;;;15.32;4.25;;;27.20;54.50;;;;;;6219584;23;20103;-87
2021/06/21 08:00:40;;;;;;;15.57;4.47;;;27.30;54.20;;;;;;6242840;23;20411;-87
2021/06/21 08:03:10;;;;;;;18.50;5.00;;;27.30;53.60;;;;;;6244716;23;20027;-87
2021/06/21 08:05:37;;;;;;;19.88;4.70;;;27.40;53.40;;;;;;6244875;23;20034;-87
2021/06/21 08:08:05;;;;;;;20.02;4.35;;;27.40;53.20;;;;;;6246213;22;20439;-87
2021/06/21 08:10:31;;;;;;;20.35;4.60;;;27.50;52.50;;;;;;6246558;22;20011;-87
2021/06/21 08:12:56;;;;;;;10.93;4.15;;;27.60;52.40;;;;;;6243634;23;20447;-87
2021/06/21 08:15:22;;;;;;;18.85;4.50;;;27.60;51.90;;;;;;6244088;23;20082;-87
2021/06/21 08:17:48;;;;;;;10.07;2.92;;;27.70;51.70;;;;;;6244746;23;20008;-87
2021/06/21 08:20:14;;;;;;;16.15;3.55;;;27.80;51.40;;;;;;6244652;23;20423;-87
2021/06/21 08:22:40;;;;;;;19.80;3.28;;;27.90;50.80;;;;;;6245190;23;20004;-87
2021/06/21 08:25:08;;;;;;;12.07;3.35;;;28.00;50.10;;;;;;6244143;23;20320;-87
2021/06/21 08:27:33;;;;;;;13.32;3.50;;;28.20;49.90;;;;;;6244670;23;20004;-87
2021/06/21 08:29:59;;;;;;;12.98;3.55;;;28.20;49.70;;;;;;6242234;23;20342;-87
2021/06/21 08:32:26;;;;;;;18.23;3.60;;;28.30;49.60;;;;;;6243310;23;20098;-88
2021/06/21 08:34:52;;;;;;;11.70;3.42;;;28.40;49.10;;;;;;6242956;23;20024;-87
2021/06/21 08:37:20;;;;;;;10.43;3.25;;;28.50;49.00;;;;;;6245716;22;20004;-87
2021/06/21 08:39:47;;;;;;;14.48;3.13;;;28.60;48.80;;;;;;6244319;23;20004;-87
2021/06/21 08:42:13;;;;;;;13.93;3.47;;;28.60;47.90;;;;;;6244488;23;20043;-88
2021/06/21 08:44:41;;;;;;;19.58;3.85;;;28.50;47.80;;;;;;6244723;23;20042;-87
2021/06/21 08:47:12;;;;;;;10.05;2.58;;;28.50;47.70;;;;;;6243555;23;20011;-87
2021/06/21 08:49:43;;;;;;;9.90;2.80;;;28.70;47.80;;;;;;6243039;23;20016;-87
2021/06/21 08:52:10;;;;;;;11.63;2.90;;;28.90;47.80;;;;;;6243705;23;20062;-87
2021/06/21 08:54:35;;;;;;;13.52;3.55;;;28.90;47.60;;;;;;6243120;23;20497;-87
2021/06/21 08:57:04;;;;;;;12.05;3.50;;;29.00;47.30;;;;;;6244881;23;20008;-88
2021/06/21 08:59:29;;;;;;;12.05;2.50;;;29.10;46.90;;;;;;6243471;23;19997;-87
2021/06/21 09:01:56;;;;;;;14.82;3.08;;;29.10;46.80;;;;;;6243820;23;20023;-87
2021/06/21 09:04:23;;;;;;;15.30;3.35;;;29.10;46.20;;;;;;6244108;23;20004;-87
2021/06/21 09:06:49;;;;;;;14.07;3.50;;;29.10;46.50;;;;;;6244328;23;20015;-88
2021/06/21 09:09:15;;;;;;;9.40;2.53;;;29.10;46.20;;;;;;6244300;23;20007;-87
2021/06/21 09:11:49;;;;;;;14.50;3.72;;;29.20;46.10;;;;;;6244156;23;20019;-87
2021/06/21 09:14:24;;;;;;;15.20;3.65;;;29.20;45.40;;;;;;6244389;22;19996;-87
2021/06/21 09:16:51;;;;;;;15.25;3.05;;;29.20;45.90;;;;;;6244307;22;20005;-87
2021/06/21 09:19:20;;;;;;;22.30;3.45;;;29.30;46.10;;;;;;6244035;23;20004;-87
2021/06/21 09:21:46;;;;;;;19.08;3.58;;;29.40;46.00;;;;;;6243792;23;20031;-85
2021/06/21 09:24:18;;;;;;;13.48;3.92;;;29.50;46.10;;;;;;6242576;23;20000;-86
2021/06/21 09:26:46;;;;;;;14.13;3.55;;;29.50;45.40;;;;;;6243711;23;20008;-86
2021/06/21 09:29:13;;;;;;;15.82;4.55;;;29.50;45.90;;;;;;6243650;23;20008;-86
2021/06/21 09:31:53;;;;;;;15.75;3.20;;;29.60;45.90;;;;;;6242971;23;20012;-86
2021/06/21 09:34:22;;;;;;;16.23;3.60;;;29.70;45.60;;;;;;6243663;23;20004;-86
2021/06/21 09:36:47;;;;;;;16.55;3.65;;;29.70;45.80;;;;;;6243465;23;20434;-86
2021/06/21 09:39:28;;;;;;;18.73;3.75;;;29.80;45.80;;;;;;6243933;23;20000;-85
2021/06/21 09:42:23;;;;;;;15.40;4.05;;;29.90;45.30;;;;;;6243128;23;20482;-86
2021/06/21 09:45:00;;;;;;;20.98;3.60;;;29.90;45.30;;;;;;6242569;23;20008;-87
2021/06/21 09:47:37;;;;;;;15.85;3.55;;;30.00;45.50;;;;;;6242192;23;20004;-86
2021/06/21 09:50:15;;;;;;;15.02;4.28;;;30.00;45.60;;;;;;6243123;23;20004;-86
2021/06/21 09:52:45;;;;;;;13.98;3.92;;;30.20;45.70;;;;;;6242694;22;20346;-86
2021/06/21 09:55:28;;;;;;;17.88;4.60;;;30.20;45.40;;;;;;5103330;27;20945;-86
2021/06/21 09:58:13;;;;;;;20.90;4.90;;;30.20;45.10;;;;;;5082071;28;20035;-86
2021/06/21 10:00:50;;;;;;;20.00;5.32;;;30.30;45.00;;;;;;5084983;28;20024;-86
2021/06/21 10:03:27;;;;;;;22.55;4.80;;;30.30;44.80;;;;;;5063520;28;20032;-86
2021/06/21 10:06:09;;;;;;;18.27;4.97;;;30.30;45.20;;;;;;5059725;28;20021;-86
2021/06/21 10:08:46;;;;;;;20.02;4.32;;;30.40;44.50;;;;;;5078374;28;20087;-86
2021/06/21 10:11:36;;;;;;;18.67;4.53;;;30.40;44.30;;;;;;5053081;28;20024;-86
2021/06/21 10:14:05;;;;;;;23.08;5.15;;;30.50;44.40;;;;;;5066215;28;20115;-86
2021/06/21 10:16:31;;;;;;;13.02;3.88;;;30.50;44.80;;;;;;5083575;28;20032;-86
2021/06/21 10:18:57;;;;;;;21.58;4.15;;;30.50;44.50;;;;;;5068021;28;20452;-86
2021/06/21 10:21:24;;;;;;;18.50;3.70;;;30.50;44.40;;;;;;5064520;28;20032;-86
2021/06/21 10:23:50;;;;;;;29.58;4.63;;;30.60;44.40;;;;;;5081244;28;20024;-86
2021/06/21 10:26:16;;;;;;;22.13;4.30;;;30.60;44.10;;;;;;5070405;28;20051;-86
2021/06/21 10:28:44;;;;;;;26.45;5.18;;;30.50;44.20;;;;;;5057358;28;20021;-86
2021/06/21 10:31:10;;;;;;;21.50;4.32;;;30.60;44.30;;;;;;5079939;28;20032;-86
2021/06/21 10:33:36;;;;;;;17.80;4.15;;;30.60;44.00;;;;;;5056094;28;20166;-86
2021/06/21 10:36:05;;;;;;;16.25;3.90;;;30.60;44.00;;;;;;5070724;28;20090;-86
2021/06/21 10:38:32;;;;;;;20.20;5.53;;;30.70;44.00;;;;;;5063961;28;20028;-86
2021/06/21 10:41:09;;;;;;;18.10;4.63;;;30.70;43.80;;;;;;5062949;28;20020;-86
2021/06/21 10:43:44;;;;;;;17.17;4.72;;;30.80;43.50;;;;;;5063831;28;20035;-86
2021/06/21 10:46:24;;;;;;;20.10;4.32;;;30.80;43.30;;;;;;5078548;28;20411;-86
2021/06/21 10:51:39;;;;;;;27.48;5.22;;;30.90;43.10;;;;;;5082111;28;20028;-86
2021/06/21 10:54:26;;;;;;;19.25;4.30;;;30.80;43.20;;;;;;5054674;28;20034;-86
2021/06/21 10:56:54;;;;;;;16.17;3.47;;;30.90;43.30;;;;;;5041101;28;20055;-86
2021/06/21 10:59:23;;;;;;;28.35;4.70;;;30.90;43.10;;;;;;5040739;28;20091;-86
2021/06/21 11:01:58;;;;;;;15.18;4.13;;;30.80;42.60;;;;;;5045180;28;20090;-86
2021/06/21 11:04:36;;;;;;;13.73;3.42;;;30.70;42.60;;;;;;5045772;28;20037;-86
2021/06/21 11:07:19;;;;;;;18.42;4.20;;;30.70;42.70;;;;;;5028389;28;20025;-86
2021/06/21 11:09:55;;;;;;;28.67;4.95;;;30.80;42.70;;;;;;5033601;28;20083;-86
2021/06/21 11:12:24;;;;;;;24.13;4.15;;;30.90;42.70;;;;;;5032389;28;20493;-86
2021/06/21 11:15:11;;;;;;;24.75;4.55;;;30.90;42.50;;;;;;5033679;28;20038;-86
2021/06/21 11:17:45;;;;;;;23.00;5.32;;;31.00;42.70;;;;;;5032062;28;20022;-86
2021/06/21 11:20:30;;;;;;;21.23;4.72;;;31.00;42.40;;;;;;5027063;28;20064;-86
2021/06/21 11:23:02;;;;;;;18.75;4.15;;;31.10;42.30;;;;;;5038876;28;20448;-86
2021/06/21 11:25:43;;;;;;;18.85;3.95;;;31.10;42.20;;;;;;5033187;28;20079;-86
2021/06/21 11:28:37;;;;;;;23.55;4.07;;;31.20;42.30;;;;;;5027482;28;20108;-86
2021/06/21 11:31:18;;;;;;;24.95;6.70;;;31.20;42.00;;;;;;5033308;28;20025;-87
2021/06/21 11:34:03;;;;;;;23.48;4.07;;;31.10;42.40;;;;;;5025334;28;20489;-87
2021/06/21 11:36:45;;;;;;;16.65;4.00;;;31.20;42.50;;;;;;5026530;28;20389;-86
2021/06/21 11:39:27;;;;;;;23.23;4.80;;;31.20;42.10;;;;;;5034936;28;20025;-86
2021/06/21 11:41:54;;;;;;;21.13;5.38;;;31.20;41.80;;;;;;5025853;28;20121;-86
2021/06/21 11:44:41;;;;;;;21.52;4.85;;;31.20;42.20;;;;;;5025991;28;20111;-86
2021/06/21 11:47:22;;;;;;;20.67;4.35;;;31.30;42.20;;;;;;5049728;28;20029;-86
2021/06/21 11:49:55;;;;;;;28.27;4.97;;;31.30;42.00;;;;;;5028412;28;20049;-86
2021/06/21 11:52:23;;;;;;;13.95;3.60;;;31.30;42.10;;;;;;5022124;28;20556;-87
2021/06/21 11:54:51;;;;;;;20.33;4.30;;;31.30;42.60;;;;;;5029303;28;20517;-86
2021/06/21 11:57:24;;;;;;;22.45;4.40;;;31.30;42.40;;;;;;5016514;28;20445;-86
2021/06/21 11:59:52;;;;;;;19.10;4.45;;;31.30;42.10;;;;;;5031622;28;20021;-86
2021/06/21 12:02:24;;;;;;;12.60;3.53;;;31.30;42.60;;;;;;5022872;28;20048;-87
2021/06/21 12:04:51;;;;;;;;;;;31.40;42.70;;;;;;5031792;28;20485;-87
2021/06/21 12:07:31;;;;;;;23.98;3.95;;;31.30;42.60;;;;;;5032710;28;19935;-87
2021/06/21 12:09:58;;;;;;;22.20;4.03;;;31.40;42.60;;;;;;5022769;28;20026;-87
2021/06/21 12:12:29;;;;;;;17.05;4.13;;;31.40;42.60;;;;;;5029931;28;20414;-87
2021/06/21 12:14:56;;;;;;;16.40;4.32;;;31.40;42.30;;;;;;5034033;28;20105;-87
2021/06/21 12:17:24;;;;;;;20.13;5.35;;;31.40;42.30;;;;;;5024111;28;20028;-86
2021/06/21 12:20:19;;;;;;;22.48;5.30;;;31.50;42.50;;;;;;5032548;28;20025;-86
2021/06/21 12:22:55;;;;;;;19.88;3.53;;;31.50;42.40;;;;;;5010538;28;20042;-86
2021/06/21 12:25:28;;;;;;;14.25;3.70;;;31.30;42.60;;;;;;5032698;28;20112;-87
2021/06/21 12:28:08;;;;;;;22.63;3.88;;;31.20;42.60;;;;;;5032499;28;20025;-87
2021/06/21 12:30:40;;;;;;;21.02;4.18;;;31.00;43.00;;;;;;5029022;28;20022;-87
2021/06/21 12:33:25;;;;;;;19.95;4.68;;;30.90;43.10;;;;;;5023131;28;20029;-87
2021/06/21 12:36:12;;;;;;;24.23;4.28;;;31.20;43.10;;;;;;5023460;28;20026;-86
2021/06/21 12:38:50;;;;;;;18.42;3.85;;;31.30;42.50;;;;;;5031680;28;20507;-86
2021/06/21 12:41:37;;;;;;;16.35;3.83;;;31.30;42.90;;;;;;5031286;28;20010;-86
2021/06/21 12:44:10;;;;;;;16.83;4.28;;;31.20;42.60;;;;;;5047327;28;20032;-86
2021/06/21 12:46:48;;;;;;;18.83;3.67;;;31.10;42.90;;;;;;5048951;28;20040;-86
2021/06/21 12:49:18;;;;;;;29.38;4.57;;;31.20;42.90;;;;;;5049974;28;20017;-86
2021/06/21 12:51:45;;;;;;;15.18;3.85;;;31.30;43.00;;;;;;5023611;28;20022;-85
2021/06/21 12:54:18;;;;;;;19.67;3.80;;;31.40;42.80;;;;;;5024480;28;20050;-85
2021/06/21 12:56:48;;;;;;;25.55;4.63;;;31.50;42.70;;;;;;5032290;28;20057;-85